Portada
METAR-TAF:

METAR-TAF

Aeroports :

Al-Riyad, Aràbia Saudita

latitud: 24-56N, longitud: 046-43E, altitud: 614 m

Observació

L'informe es va fer fa 45 minuts, a les 10:00 UTC
Vent 5 kt del Nord/Nord-Est
Temperatura 24°C
Humitat 29%
Pressió 1022 hPa
Visibilitat 10 km o més
sense núvols per sota de 1500 mi sense presència de cumulonimbus.

METAR: OERK 281000Z 03005KT CAVOK 24/05 Q1022 NOSIG

Hora: 13:45 (10:45 UTC)

Pronòstic

L'informe es va fer fa 5 hores i 45 minuts, a les 05:00 UTC
Pronòstic vàlid del 28 a les 06 UTC al 29 a les 12 UTC
Vent 12 kt del Nord
Visibilitat 10 km o més
sense núvols per sota de 1500 mi sense presència de cumulonimbus.
Evolucionant progressivament
l' 29 a les 03 UTC al 29 a les 05 UTC
Vent 11 kt del Nord-Oest

TAF: OERK 280500Z 2806/2912 36012KT CAVOK BECMG 2903/2905 31011KT

Observacions i pronòstics meteorològics de més de 4000 aeroports (METAR i TAF).

Les estacions disponibles són els punts grocs i vermells al mapa.

Posi el ratolí al punt desitjat per veure el nom de l'estació.

Feu clic per veure les observacions i els pronòstics meteorològics.

Per canviar el mapa: feu clic els botons verds amb una creu de color negre per apropar; al botó verd amb un guió per allunyar la imatge; o en les fletxes verdes per a mapes adjacents.


METAR-TAF: